Time;durP1;ratioP1;P1;durP2;ratioP2;P2;SDS_P1;SDS_P2;PMS_P1;PMS_P2;Temp;Humidity;BMP_temperature;BMP_pressure;BME280_temperature;BME280_humidity;BME280_pressure;Samples;Min_cycle;Max_cycle;Signal;HPM_P1;HPM_P2
2021/11/19 00:00:10;;;;;;;17.50;13.50;;;;;;;8.47;63.74;102459.84;2080493;28;20423;-61
2021/11/19 00:01:17;;;;;;;17.60;14.23;;;;;;;8.67;63.70;102488.94;2080674;28;20441;-61
2021/11/19 00:02:18;;;;;;;19.97;14.97;;;;;;;8.26;64.02;102435.47;2080636;28;20413;-61
2021/11/19 00:03:19;;;;;;;17.63;14.23;;;;;;;8.47;64.37;102471.69;2080735;28;20964;-61
2021/11/19 00:04:20;;;;;;;17.97;14.20;;;;;;;7.79;64.17;102373.59;2080455;28;20178;-62
2021/11/19 00:05:21;;;;;;;19.37;14.90;;;;;;;8.52;64.42;102487.16;2080670;28;20649;-61
2021/11/19 00:06:22;;;;;;;19.08;14.95;;;;;;;8.55;64.22;102489.97;2080537;28;20255;-62
2021/11/19 00:07:22;;;;;;;16.10;13.03;;;;;;;8.52;64.50;102487.97;2080793;28;20191;-62
2021/11/19 00:08:25;;;;;;;16.40;13.97;;;;;;;8.46;64.71;102496.94;2080614;28;20229;-62
2021/11/19 00:09:27;;;;;;;18.30;15.00;;;;;;;8.44;64.76;102494.53;2080591;28;20176;-61
2021/11/19 00:10:29;;;;;;;18.00;14.53;;;;;;;7.68;64.64;102383.69;2080565;28;20538;-61
2021/11/19 00:11:32;;;;;;;17.47;14.13;;;;;;;8.37;65.08;102493.63;2080606;28;20425;-62
2021/11/19 00:12:34;;;;;;;17.20;14.03;;;;;;;7.88;64.96;102404.47;2080572;28;20427;-61
2021/11/19 00:13:34;;;;;;;17.93;14.47;;;;;;;8.35;64.84;102485.72;2081526;28;20430;-61
2021/11/19 00:14:35;;;;;;;18.80;14.93;;;;;;;8.23;64.92;102482.38;2081953;28;20417;-61
2021/11/19 00:15:36;;;;;;;18.83;14.90;;;;;;;8.26;64.87;102489.91;2082122;28;20171;-61
2021/11/19 00:16:39;;;;;;;19.83;15.17;;;;;;;7.68;65.30;102389.97;2082050;28;20185;-61
2021/11/19 00:17:40;;;;;;;17.90;14.80;;;;;;;8.29;65.20;102486.41;2082126;28;20190;-61
2021/11/19 00:18:42;;;;;;;19.13;15.03;;;;;;;8.27;65.10;102489.56;2082205;28;20427;-61
2021/11/19 00:19:44;;;;;;;17.83;15.40;;;;;;;8.22;65.52;102489.88;2082382;28;20485;-61
2021/11/19 00:20:45;;;;;;;16.67;13.60;;;;;;;8.24;65.42;102484.75;2082075;28;20648;-62
2021/11/19 00:21:45;;;;;;;19.30;15.10;;;;;;;8.22;65.21;102489.06;2082197;28;20527;-61
2021/11/19 00:22:46;;;;;;;18.63;15.30;;;;;;;8.16;65.62;102485.00;2082222;28;20328;-61
2021/11/19 00:23:48;;;;;;;19.48;15.60;;;;;;;7.99;65.78;102477.25;2082051;28;20185;-62
2021/11/19 00:24:48;;;;;;;18.40;15.70;;;;;;;8.16;65.84;102485.00;2081869;28;20181;-61
2021/11/19 00:25:49;;;;;;;18.27;15.03;;;;;;;8.13;65.73;102485.72;2082053;28;20828;-61
2021/11/19 00:26:50;;;;;;;19.60;15.97;;;;;;;8.11;65.94;102486.09;2082170;28;20578;-61
2021/11/19 00:27:51;;;;;;;19.77;15.97;;;;;;;7.65;65.92;102417.53;2082163;28;20181;-61
2021/11/19 00:28:51;;;;;;;19.60;15.53;;;;;;;8.01;66.25;102483.19;2081980;28;20286;-61
2021/11/19 00:29:52;;;;;;;20.27;15.93;;;;;;;7.64;66.65;102430.50;2082014;28;20205;-62
2021/11/19 00:30:53;;;;;;;20.95;16.08;;;;;;;7.97;66.99;102477.59;2082120;28;20209;-61
2021/11/19 00:31:54;;;;;;;21.83;16.33;;;;;;;7.46;66.63;102398.28;2082028;28;20212;-61
2021/11/19 00:32:55;;;;;;;20.40;16.27;;;;;;;7.51;66.90;102406.25;2082064;28;20299;-62
2021/11/19 00:33:56;;;;;;;18.98;15.07;;;;;;;7.97;66.61;102483.13;2081728;28;20180;-61
2021/11/19 00:34:56;;;;;;;20.07;15.53;;;;;;;7.99;66.35;102485.53;2081863;28;20192;-62
2021/11/19 00:35:57;;;;;;;19.47;16.10;;;;;;;7.93;66.53;102467.66;2078168;28;20660;-61
2021/11/19 00:36:58;;;;;;;18.27;15.13;;;;;;;7.98;66.39;102472.88;2073781;28;20219;-61
2021/11/19 00:37:59;;;;;;;17.92;15.23;;;;;;;8.01;66.47;102472.13;2073817;28;20165;-62
2021/11/19 00:39:07;;;;;;;20.08;15.80;;;;;;;7.95;66.71;102466.13;2073839;28;20652;-61
2021/11/19 00:40:14;;;;;;;18.25;15.40;;;;;;;7.96;66.68;102469.69;2081215;28;20271;-62
2021/11/19 00:41:15;;;;;;;19.63;15.27;;;;;;;7.48;66.63;102390.44;2080644;28;20174;-61
2021/11/19 00:42:15;;;;;;;18.63;15.30;;;;;;;7.96;66.48;102470.50;2073722;28;20171;-61
2021/11/19 00:43:17;;;;;;;18.27;15.00;;;;;;;7.92;66.44;102466.88;2073835;28;20218;-61
2021/11/19 00:44:19;;;;;;;18.63;15.63;;;;;;;7.90;66.99;102468.41;2073314;28;20169;-62
2021/11/19 00:45:21;;;;;;;19.67;15.45;;;;;;;7.81;66.73;102456.81;2073845;28;20612;-61
2021/11/19 00:46:21;;;;;;;19.15;15.73;;;;;;;7.88;66.87;102471.53;2073612;28;20165;-61
2021/11/19 00:47:22;;;;;;;18.70;15.67;;;;;;;7.84;67.12;102462.41;2073770;28;20174;-61
2021/11/19 00:48:24;;;;;;;17.23;14.60;;;;;;;7.88;67.27;102465.22;2073553;28;20287;-61
2021/11/19 00:49:28;;;;;;;18.98;16.45;;;;;;;7.29;67.18;102379.47;2073471;28;20263;-62
2021/11/19 00:50:37;;;;;;;20.52;15.20;;;;;;;7.63;67.00;102452.97;2073742;28;20176;-62
2021/11/19 00:51:41;;;;;;;20.33;15.77;;;;;;;7.75;67.01;102461.84;2073796;28;20179;-61
2021/11/19 00:52:42;;;;;;;19.85;15.38;;;;;;;7.77;67.32;102455.97;2073783;28;20173;-61
2021/11/19 00:53:46;;;;;;;18.13;15.53;;;;;;;7.71;67.25;102461.00;2073746;28;20209;-61
2021/11/19 00:54:47;;;;;;;19.27;15.93;;;;;;;7.52;67.28;102427.97;2073118;28;20197;-61
2021/11/19 00:55:48;;;;;;;20.87;15.93;;;;;;;7.71;67.23;102457.44;2073817;28;20166;-61
2021/11/19 00:56:56;;;;;;;19.23;15.43;;;;;;;7.67;67.66;102457.38;2073426;28;20170;-61
2021/11/19 00:57:56;;;;;;;20.10;15.73;;;;;;;7.69;67.54;102462.53;2073720;28;20521;-61
2021/11/19 00:58:58;;;;;;;21.30;17.67;;;;;;;7.63;67.98;102455.75;2073628;28;20224;-62
2021/11/19 00:59:58;;;;;;;19.10;15.55;;;;;;;7.67;67.36;102464.84;2073532;28;20177;-61
2021/11/19 01:01:04;;;;;;;18.07;15.90;;;;;;;7.66;67.63;102449.47;2073599;28;20258;-61
2021/11/19 01:02:13;;;;;;;18.80;16.48;;;;;;;7.63;67.51;102453.75;2073612;28;20181;-61
2021/11/19 01:03:14;;;;;;;20.20;15.68;;;;;;;7.63;67.60;102452.97;2073684;28;20220;-62
2021/11/19 01:04:15;;;;;;;19.08;16.30;;;;;;;7.52;67.67;102435.41;2073250;28;20710;-61
2021/11/19 01:05:17;;;;;;;19.80;16.63;;;;;;;7.66;67.28;102453.03;2073680;28;20162;-61
2021/11/19 01:06:18;;;;;;;20.48;16.92;;;;;;;7.66;67.41;102452.22;2073538;28;20625;-61
2021/11/19 01:07:21;;;;;;;23.13;17.53;;;;;;;7.66;67.76;102453.03;2073472;28;20622;-62
2021/11/19 01:08:22;;;;;;;18.52;16.05;;;;;;;7.65;67.35;102456.16;2073502;28;20264;-61
2021/11/19 01:09:26;;;;;;;21.42;17.50;;;;;;;7.65;67.79;102453.41;2073490;28;20265;-61
2021/11/19 01:10:30;;;;;;;18.73;16.65;;;;;;;7.21;67.40;102380.50;2073613;28;20189;-61
2021/11/19 01:11:31;;;;;;;21.05;16.98;;;;;;;7.62;67.78;102452.16;2073490;28;20260;-61
2021/11/19 01:12:32;;;;;;;20.20;17.00;;;;;;;7.63;67.83;102451.00;2073532;28;20186;-61
2021/11/19 01:13:35;;;;;;;22.58;17.33;;;;;;;7.23;67.44;102383.72;2073583;28;20181;-61
2021/11/19 01:14:41;;;;;;;21.23;17.58;;;;;;;7.68;67.53;102447.16;2073040;28;20644;-61
2021/11/19 01:15:55;;;;;;;21.40;17.08;;;;;;;7.68;67.37;102453.47;2073474;28;20235;-61
2021/11/19 01:17:01;;;;;;;20.27;17.10;;;;;;;7.64;67.71;102455.34;2073300;28;20184;-62
2021/11/19 01:18:10;;;;;;;20.48;17.40;;;;;;;7.64;67.84;102455.34;2073518;28;20265;-61
2021/11/19 01:19:16;;;;;;;20.23;16.90;;;;;;;7.64;67.29;102444.31;2073572;28;20182;-62
2021/11/19 01:20:40;;;;;;;21.85;17.42;;;;;;;7.66;67.34;102447.53;2073267;28;20692;-61
2021/11/19 01:21:59;;;;;;;21.02;16.95;;;;;;;7.66;67.50;102449.47;2073525;28;20173;-61
2021/11/19 01:23:01;;;;;;;20.77;16.95;;;;;;;7.60;67.95;102440.72;2072852;28;20192;-61
2021/11/19 01:24:03;;;;;;;19.25;16.58;;;;;;;7.59;67.37;102438.31;2072498;28;20659;-61
2021/11/19 01:25:09;;;;;;;20.20;17.30;;;;;;;7.53;67.63;102443.34;2072509;28;20228;-61
2021/11/19 01:26:20;;;;;;;20.45;16.33;;;;;;;7.52;68.16;102438.19;2073283;28;20595;-61
2021/11/19 01:27:22;;;;;;;20.40;16.55;;;;;;;7.48;67.55;102435.38;2073286;28;20204;-61
2021/11/19 01:28:23;;;;;;;19.60;16.05;;;;;;;7.44;67.76;102434.50;2073349;28;20295;-61
2021/11/19 01:29:24;;;;;;;22.10;17.02;;;;;;;7.49;67.93;102449.97;2073335;28;20736;-62
2021/11/19 01:30:37;;;;;;;21.30;16.30;;;;;;;7.48;67.95;102453.91;2073290;28;20557;-61
2021/11/19 01:31:42;;;;;;;21.70;17.23;;;;;;;7.47;68.00;102449.53;2073353;28;20429;-61
2021/11/19 01:32:43;;;;;;;19.33;16.83;;;;;;;6.93;68.23;102367.00;2072956;28;20647;-62
2021/11/19 01:33:44;;;;;;;22.63;18.00;;;;;;;7.48;68.42;102451.13;2065424;28;20541;-61
2021/11/19 01:34:45;;;;;;;21.65;17.48;;;;;;;7.44;68.34;102448.28;2064951;28;20196;-61
2021/11/19 01:35:46;;;;;;;23.60;17.77;;;;;;;7.49;67.95;102453.50;2069689;28;20178;-61
2021/11/19 01:36:47;;;;;;;22.50;17.33;;;;;;;7.19;68.25;102399.38;2081570;28;20231;-61
2021/11/19 01:37:48;;;;;;;21.03;17.47;;;;;;;7.35;67.65;102442.25;2081471;28;20234;-62
2021/11/19 01:38:50;;;;;;;21.33;17.50;;;;;;;7.49;68.01;102453.50;2081428;28;20215;-61
2021/11/19 01:39:50;;;;;;;22.52;18.55;;;;;;;7.53;67.81;102448.84;2081465;28;20634;-61
2021/11/19 01:40:56;;;;;;;25.57;19.00;;;;;;;7.52;68.07;102443.69;2081404;28;20581;-62
2021/11/19 01:42:01;;;;;;;23.15;18.63;;;;;;;7.50;68.00;102443.28;2081482;28;20166;-61
2021/11/19 01:43:07;;;;;;;22.83;18.50;;;;;;;6.59;67.84;102303.75;2081629;28;20201;-61
2021/11/19 01:44:36;;;;;;;22.00;17.77;;;;;;;7.45;67.83;102443.59;2081122;28;20663;-61
2021/11/19 01:45:41;;;;;;;21.60;17.95;;;;;;;7.40;67.94;102443.88;2082857;28;20191;-61
2021/11/19 01:46:45;;;;;;;23.48;18.00;;;;;;;7.42;68.11;102449.81;2081297;28;20586;-61
2021/11/19 01:47:54;;;;;;;24.25;18.73;;;;;;;7.34;68.21;102442.59;2081298;28;20184;-61
2021/11/19 01:48:56;;;;;;;22.08;17.70;;;;;;;7.32;67.89;102433.88;2081379;28;20212;-61
2021/11/19 01:49:57;;;;;;;21.33;18.25;;;;;;;6.72;68.21;102343.78;2081296;28;20230;-61
2021/11/19 01:51:04;;;;;;;21.33;18.58;;;;;;;7.34;68.40;102446.13;2081310;28;20234;-61
2021/11/19 01:52:12;;;;;;;20.70;17.67;;;;;;;7.33;67.94;102436.28;2081462;28;20662;-61
2021/11/19 01:53:38;;;;;;;21.50;17.92;;;;;;;7.39;67.99;102445.84;2081393;28;20179;-61
2021/11/19 01:54:53;;;;;;;26.20;18.55;;;;;;;7.41;68.32;102448.22;2080823;28;20706;-62
2021/11/19 01:56:05;;;;;;;22.73;18.08;;;;;;;7.44;67.85;102450.28;2081264;28;20187;-61
2021/11/19 01:57:23;;;;;;;21.60;18.23;;;;;;;7.37;67.81;102445.41;2081392;28;20181;-61
2021/11/19 01:58:30;;;;;;;22.90;17.85;;;;;;;7.37;68.35;102442.66;2081400;28;20165;-61
2021/11/19 01:59:38;;;;;;;22.48;18.58;;;;;;;7.12;68.15;102405.56;2081437;28;20169;-62
2021/11/19 02:00:41;;;;;;;21.15;17.85;;;;;;;7.35;68.64;102453.28;2081398;28;20169;-62
2021/11/19 02:01:49;;;;;;;24.20;18.38;;;;;;;7.39;68.12;102453.34;2081311;28;20247;-61
2021/11/19 02:02:53;;;;;;;21.55;18.58;;;;;;;7.38;67.97;102447.00;2081425;28;20166;-61
2021/11/19 02:03:58;;;;;;;28.88;18.10;;;;;;;7.38;68.43;102446.22;2081254;28;20192;-61
2021/11/19 02:05:04;;;;;;;20.27;18.08;;;;;;;7.40;68.07;102446.66;2081569;28;20591;-61
2021/11/19 02:06:09;;;;;;;22.75;18.67;;;;;;;7.36;68.30;102435.56;2081462;28;20181;-61
2021/11/19 02:07:17;;;;;;;21.42;17.98;;;;;;;7.40;67.92;102450.22;2081368;28;20249;-61
2021/11/19 02:08:22;;;;;;;22.30;18.48;;;;;;;7.37;67.91;102450.94;2081144;28;20172;-61
2021/11/19 02:09:28;;;;;;;21.75;18.10;;;;;;;7.40;68.04;102452.16;2081449;28;20585;-62
2021/11/19 02:10:52;;;;;;;23.55;18.20;;;;;;;7.39;67.91;102454.13;2081284;28;20248;-61
2021/11/19 02:12:11;;;;;;;22.75;18.45;;;;;;;7.41;68.00;102460.06;2081286;28;20259;-61
2021/11/19 02:13:20;;;;;;;21.38;18.05;;;;;;;7.41;67.76;102454.56;2081403;28;20760;-61
2021/11/19 02:14:40;;;;;;;21.67;17.52;;;;;;;7.47;67.56;102446.75;2080991;28;20640;-62
2021/11/19 02:16:04;;;;;;;22.95;18.10;;;;;;;7.39;67.54;102445.06;2081424;28;20171;-61
2021/11/19 02:17:07;;;;;;;21.45;17.63;;;;;;;7.39;67.55;102442.31;2081318;28;20681;-61
2021/11/19 02:18:12;;;;;;;21.98;17.25;;;;;;;7.41;67.47;102454.56;2081225;28;20596;-61
2021/11/19 02:19:17;;;;;;;23.75;18.10;;;;;;;7.39;67.56;102445.84;2081321;28;20177;-61
2021/11/19 02:20:31;;;;;;;22.75;17.90;;;;;;;7.40;68.07;102444.69;2081168;28;20176;-62
2021/11/19 02:21:49;;;;;;;20.27;17.63;;;;;;;7.40;67.70;102433.66;2081391;28;20238;-62
2021/11/19 02:22:55;;;;;;;22.33;17.80;;;;;;;7.46;67.79;102445.19;2081178;28;20258;-61
2021/11/19 02:23:58;;;;;;;21.20;16.88;;;;;;;7.48;67.55;102443.66;2080989;28;20250;-61
2021/11/19 02:25:06;;;;;;;22.40;18.02;;;;;;;7.53;67.41;102445.31;2081139;28;20216;-61
2021/11/19 02:26:13;;;;;;;20.42;17.33;;;;;;;7.48;67.56;102440.09;2081248;28;20705;-62
2021/11/19 02:27:16;;;;;;;20.55;16.85;;;;;;;7.52;67.31;102433.47;2081100;28;20650;-61
2021/11/19 02:28:22;;;;;;;19.95;16.48;;;;;;;7.58;67.31;102433.97;2080943;28;20172;-61
2021/11/19 02:29:23;;;;;;;22.42;17.77;;;;;;;7.59;67.22;102432.81;2081222;28;20263;-61
2021/11/19 02:30:33;;;;;;;21.33;16.77;;;;;;;7.62;67.39;102432.84;2081147;28;20161;-61
2021/11/19 02:31:45;;;;;;;21.83;17.10;;;;;;;7.66;67.23;102432.91;2081227;28;20166;-61
2021/11/19 02:32:50;;;;;;;21.38;16.48;;;;;;;7.71;67.21;102435.38;2081033;28;20165;-61
2021/11/19 02:33:53;;;;;;;18.85;16.23;;;;;;;7.72;66.54;102428.66;2081118;28;20184;-61
2021/11/19 02:34:54;;;;;;;19.63;16.35;;;;;;;7.74;67.31;102437.41;2080885;28;20180;-62
2021/11/19 02:35:58;;;;;;;18.40;16.08;;;;;;;7.75;67.00;102431.47;2077557;28;20174;-61
2021/11/19 02:37:03;;;;;;;20.92;16.05;;;;;;;7.82;66.57;102422.53;2072931;28;20212;-61
2021/11/19 02:38:07;;;;;;;20.75;16.55;;;;;;;7.86;66.65;102429.72;2072900;28;20174;-61
2021/11/19 02:39:18;;;;;;;18.70;16.25;;;;;;;7.88;66.79;102423.81;2072840;28;20216;-62
2021/11/19 02:40:22;;;;;;;18.95;16.00;;;;;;;7.89;66.81;102415.16;2072828;28;20181;-62
2021/11/19 02:41:25;;;;;;;21.92;16.52;;;;;;;8.01;66.76;102427.97;2072989;28;20408;-61
2021/11/19 02:42:26;;;;;;;21.00;16.17;;;;;;;8.05;66.39;102429.59;2072925;28;20186;-61
2021/11/19 02:43:36;;;;;;;20.20;15.80;;;;;;;8.06;66.50;102427.66;2080405;28;20207;-61
2021/11/19 02:44:40;;;;;;;18.92;16.05;;;;;;;8.11;66.19;102432.84;2079144;28;20165;-61
2021/11/19 02:45:44;;;;;;;19.20;16.02;;;;;;;8.17;66.07;102428.59;2073021;28;20184;-61
2021/11/19 02:46:49;;;;;;;20.65;15.98;;;;;;;8.14;65.80;102424.59;2072976;28;20181;-61
2021/11/19 02:47:50;;;;;;;21.73;16.23;;;;;;;8.19;66.10;102427.06;2072882;28;20179;-62
2021/11/19 02:48:51;;;;;;;18.30;15.67;;;;;;;8.19;66.18;102415.19;2072839;28;20192;-61
2021/11/19 02:49:51;;;;;;;19.97;15.37;;;;;;;7.85;65.66;102359.09;2072744;28;20552;-61
2021/11/19 02:50:54;;;;;;;18.30;15.80;;;;;;;8.30;65.66;102424.47;2072838;28;20226;-61
2021/11/19 02:51:54;;;;;;;20.10;15.65;;;;;;;8.27;65.25;102423.25;2072743;28;20503;-61
2021/11/19 02:52:57;;;;;;;19.10;15.00;;;;;;;8.34;65.62;102428.88;2080437;28;20173;-62
2021/11/19 02:53:57;;;;;;;18.67;15.38;;;;;;;8.17;65.62;102385.22;2079973;28;20200;-62
2021/11/19 02:55:01;;;;;;;20.03;16.03;;;;;;;8.45;65.14;102423.50;2072730;28;20221;-61
2021/11/19 02:56:01;;;;;;;19.52;15.48;;;;;;;8.52;64.84;102429.94;2080376;28;20173;-61
2021/11/19 02:57:04;;;;;;;18.03;15.67;;;;;;;8.56;64.86;102433.50;2080438;28;20301;-61
2021/11/19 02:58:08;;;;;;;20.13;16.75;;;;;;;8.62;64.88;102420.94;2072772;28;20208;-61
2021/11/19 02:59:09;;;;;;;19.42;15.95;;;;;;;8.64;64.56;102418.63;2072644;28;20178;-61
2021/11/19 03:00:15;;;;;;;19.00;16.30;;;;;;;8.70;64.29;102422.63;2072027;28;20283;-62
2021/11/19 03:01:29;;;;;;;18.95;15.73;;;;;;;8.72;63.99;102425.03;2072486;28;20642;-61
2021/11/19 03:02:32;;;;;;;20.17;16.05;;;;;;;8.73;64.20;102419.13;2072822;28;20547;-61
2021/11/19 03:03:34;;;;;;;19.98;16.45;;;;;;;8.78;64.18;102418.00;2072209;28;20235;-62
2021/11/19 03:04:38;;;;;;;20.65;15.95;;;;;;;8.78;63.80;102404.16;2071781;28;20189;-61
2021/11/19 03:05:39;;;;;;;21.35;15.70;;;;;;;8.87;63.80;102422.03;2072819;28;20179;-61
2021/11/19 03:06:46;;;;;;;22.07;15.80;;;;;;;8.70;63.93;102396.97;2072772;28;20676;-61
2021/11/19 03:07:47;;;;;;;19.27;15.77;;;;;;;8.91;63.81;102419.34;2072922;28;20169;-61
2021/11/19 03:08:47;;;;;;;19.57;15.80;;;;;;;8.87;63.75;102418.50;2072612;28;20374;-61
2021/11/19 03:10:17;;;;;;;20.93;16.30;;;;;;;8.76;63.66;102393.47;2072788;28;20180;-61
2021/11/19 03:11:17;;;;;;;21.60;15.52;;;;;;;8.28;63.91;102330.94;2070416;28;20210;-61
2021/11/19 03:12:24;;;;;;;18.93;15.93;;;;;;;8.04;63.69;102301.00;2072818;28;20687;-61
2021/11/19 03:13:27;;;;;;;18.88;15.50;;;;;;;8.87;63.94;102422.03;2072900;28;20157;-62
2021/11/19 03:14:28;;;;;;;21.20;16.30;;;;;;;8.90;63.69;102423.25;2072708;28;20166;-61
2021/11/19 03:15:33;;;;;;;19.90;15.07;;;;;;;8.90;63.49;102424.06;2072864;28;20249;-61
2021/11/19 03:16:34;;;;;;;19.83;15.68;;;;;;;8.92;63.22;102427.25;2072798;28;20654;-61
2021/11/19 03:17:35;;;;;;;17.50;15.63;;;;;;;8.77;63.49;102408.13;2072861;28;20184;-62
2021/11/19 03:18:35;;;;;;;19.57;15.60;;;;;;;8.92;63.40;102415.41;2072697;28;20652;-62
2021/11/19 03:19:37;;;;;;;18.57;15.23;;;;;;;8.93;63.41;102417.78;2072653;28;20542;-62
2021/11/19 03:20:38;;;;;;;18.92;15.10;;;;;;;8.92;63.29;102427.25;2072718;28;20212;-61
2021/11/19 03:21:39;;;;;;;18.98;15.52;;;;;;;8.99;63.32;102412.69;2072754;28;20704;-62
2021/11/19 03:22:40;;;;;;;18.77;15.45;;;;;;;8.99;63.01;102415.47;2072854;28;20170;-61
2021/11/19 03:23:42;;;;;;;18.55;15.63;;;;;;;8.98;62.74;102408.34;2072855;28;20549;-62
2021/11/19 03:24:43;;;;;;;17.83;14.88;;;;;;;9.00;62.63;102415.09;2072578;28;20170;-62
2021/11/19 03:25:44;;;;;;;19.30;15.60;;;;;;;9.04;62.46;102412.38;2072920;28;20173;-61
2021/11/19 03:26:46;;;;;;;17.55;14.65;;;;;;;9.03;62.63;102411.56;2072058;28;20253;-62
2021/11/19 03:27:47;;;;;;;17.92;14.52;;;;;;;9.02;62.64;102406.44;2072124;28;20622;-61
2021/11/19 03:28:47;;;;;;;18.67;15.10;;;;;;;9.03;62.33;102408.78;2072732;28;20193;-61
2021/11/19 03:29:48;;;;;;;17.57;14.53;;;;;;;9.02;62.40;102409.19;2072456;28;20730;-61
2021/11/19 03:30:53;;;;;;;18.35;15.15;;;;;;;9.02;62.59;102409.97;2072812;28;20209;-61
2021/11/19 03:31:54;;;;;;;19.75;15.43;;;;;;;9.04;62.33;102421.47;2072697;28;20269;-61
2021/11/19 03:32:56;;;;;;;17.40;15.00;;;;;;;9.06;61.92;102407.25;2072761;28;20177;-61
2021/11/19 03:33:57;;;;;;;17.33;14.67;;;;;;;8.82;62.35;102369.84;2072476;28;20260;-61
2021/11/19 03:34:58;;;;;;;18.88;14.43;;;;;;;9.15;62.28;102413.25;2072736;28;20507;-61
2021/11/19 03:35:59;;;;;;;17.30;14.10;;;;;;;9.15;62.17;102407.72;2072641;28;20187;-61
2021/11/19 03:37:00;;;;;;;19.38;15.00;;;;;;;9.13;61.80;102423.94;2072751;28;20179;-61
2021/11/19 03:38:01;;;;;;;19.03;14.40;;;;;;;9.14;61.94;102422.75;2072744;28;20178;-62
2021/11/19 03:39:04;;;;;;;18.20;14.88;;;;;;;9.17;62.15;102420.00;2072766;28;20169;-61
2021/11/19 03:40:05;;;;;;;18.67;15.13;;;;;;;9.18;61.73;102418.06;2072590;28;20262;-62
2021/11/19 03:41:08;;;;;;;17.83;14.88;;;;;;;9.23;62.06;102423.25;2072749;28;20184;-61
2021/11/19 03:42:10;;;;;;;18.70;15.43;;;;;;;9.24;61.81;102424.81;2072562;28;20194;-61
2021/11/19 03:43:15;;;;;;;18.13;15.18;;;;;;;9.24;61.71;102422.88;2072814;28;20176;-61
2021/11/19 03:44:23;;;;;;;18.65;15.25;;;;;;;9.24;61.79;102420.09;2071814;28;20208;-61
2021/11/19 03:45:28;;;;;;;19.05;15.07;;;;;;;9.25;61.95;102424.44;2072240;28;20184;-61
2021/11/19 03:46:40;;;;;;;18.58;15.15;;;;;;;9.28;61.98;102423.69;2072565;28;20228;-61
2021/11/19 03:47:45;;;;;;;19.98;15.55;;;;;;;9.29;61.36;102416.19;2072841;28;20170;-61
2021/11/19 03:48:46;;;;;;;19.80;15.57;;;;;;;9.28;61.37;102417.38;2074081;28;20201;-61
2021/11/19 03:49:48;;;;;;;16.83;13.97;;;;;;;9.28;61.08;102420.91;2074213;28;20183;-61
2021/11/19 03:51:00;;;;;;;18.52;14.68;;;;;;;9.26;61.32;102417.75;2074332;28;20220;-61
2021/11/19 03:52:11;;;;;;;20.85;14.07;;;;;;;9.20;61.19;102429.53;2074378;28;20516;-61
2021/11/19 03:53:13;;;;;;;19.38;14.82;;;;;;;9.25;61.40;102424.44;2073704;28;20170;-61
2021/11/19 03:54:16;;;;;;;16.85;14.07;;;;;;;9.25;61.42;102427.22;2073577;28;20213;-61
2021/11/19 03:55:21;;;;;;;16.58;13.95;;;;;;;9.27;61.38;102416.56;2074126;28;20269;-61
2021/11/19 03:56:22;;;;;;;19.98;14.80;;;;;;;9.24;61.12;102419.28;2073570;28;20178;-61
2021/11/19 03:57:23;;;;;;;18.23;14.75;;;;;;;9.27;61.22;102429.63;2073607;28;20178;-61
2021/11/19 03:58:28;;;;;;;18.85;15.25;;;;;;;9.24;61.13;102416.53;2074243;28;20180;-61
2021/11/19 03:59:28;;;;;;;17.90;14.93;;;;;;;8.85;61.30;102360.81;2074167;28;20161;-61
2021/11/19 04:00:42;;;;;;;16.90;14.00;;;;;;;9.25;61.30;102427.22;2074098;28;20177;-61
2021/11/19 04:01:46;;;;;;;19.58;14.60;;;;;;;9.22;61.46;102422.44;2074213;28;20226;-62
2021/11/19 04:02:47;;;;;;;17.75;13.50;;;;;;;9.20;60.68;102429.53;2074202;28;20201;-61
2021/11/19 04:03:49;;;;;;;19.10;14.47;;;;;;;9.22;60.99;102418.88;2074252;28;20659;-62
2021/11/19 04:04:50;;;;;;;14.88;12.60;;;;;;;9.24;60.90;102419.28;2074002;28;20398;-61
2021/11/19 04:05:51;;;;;;;15.98;13.27;;;;;;;8.69;61.10;102362.19;2074208;28;20162;-61
2021/11/19 04:06:53;;;;;;;14.90;12.35;;;;;;;9.24;61.10;102428.41;2074135;28;20180;-62
2021/11/19 04:07:54;;;;;;;16.38;13.18;;;;;;;9.30;60.76;102426.06;2074152;28;20230;-62
2021/11/19 04:08:55;;;;;;;16.93;12.87;;;;;;;9.36;60.55;102417.03;2073970;28;20281;-61
2021/11/19 04:09:55;;;;;;;15.15;12.57;;;;;;;9.33;60.66;102423.34;2074016;28;20178;-62
2021/11/19 04:10:56;;;;;;;16.07;12.60;;;;;;;9.32;60.64;102437.56;2074084;28;20223;-61
2021/11/19 04:11:58;;;;;;;15.90;12.37;;;;;;;9.33;60.80;102436.38;2073979;28;20249;-61
2021/11/19 04:13:00;;;;;;;16.10;12.65;;;;;;;9.36;60.83;102439.19;2074227;28;20680;-62
2021/11/19 04:14:01;;;;;;;16.05;13.23;;;;;;;9.30;60.51;102435.19;2073918;28;20158;-61
2021/11/19 04:15:03;;;;;;;16.17;12.70;;;;;;;9.35;60.42;102431.25;2074218;28;20177;-61
2021/11/19 04:16:09;;;;;;;15.80;12.57;;;;;;;9.25;60.00;102426.41;2073987;28;20219;-61
2021/11/19 04:17:10;;;;;;;16.50;12.40;;;;;;;9.36;60.94;102428.13;2074245;28;20679;-62
2021/11/19 04:18:12;;;;;;;15.52;12.60;;;;;;;9.37;60.49;102429.69;2073926;28;20174;-62
2021/11/19 04:19:15;;;;;;;15.60;12.20;;;;;;;9.39;60.69;102432.88;2074114;28;20199;-62
2021/11/19 04:20:17;;;;;;;15.55;12.93;;;;;;;9.42;60.54;102428.56;2074062;28;20171;-62
2021/11/19 04:21:19;;;;;;;15.37;12.60;;;;;;;9.37;60.33;102437.22;2074005;28;20173;-62
2021/11/19 04:22:20;;;;;;;15.25;12.52;;;;;;;9.36;60.33;102432.84;2073928;28;20429;-62
2021/11/19 04:23:22;;;;;;;16.47;12.87;;;;;;;9.38;60.76;102420.22;2074015;28;20182;-61
2021/11/19 04:24:30;;;;;;;16.15;12.48;;;;;;;9.39;60.53;102418.25;2081225;28;20186;-61
2021/11/19 04:25:31;;;;;;;15.68;12.88;;;;;;;9.34;60.38;102427.72;2080900;28;20167;-62
2021/11/19 04:26:34;;;;;;;17.52;14.43;;;;;;;9.34;60.89;102424.94;2073764;28;20185;-61
2021/11/19 04:27:35;;;;;;;16.77;13.82;;;;;;;9.16;60.71;102404.59;2073912;28;20181;-62
2021/11/19 04:28:37;;;;;;;16.40;13.85;;;;;;;9.29;61.07;102421.72;2073773;28;20624;-61
2021/11/19 04:29:38;;;;;;;16.98;13.77;;;;;;;8.88;60.89;102367.56;2074096;28;20762;-61
2021/11/19 04:30:42;;;;;;;18.42;14.20;;;;;;;9.27;61.14;102435.16;2073571;28;20184;-62
2021/11/19 04:31:43;;;;;;;16.58;13.63;;;;;;;9.29;60.92;102425.28;2074020;28;20175;-61
2021/11/19 04:32:44;;;;;;;18.20;14.37;;;;;;;9.18;60.95;102429.13;2073789;28;20174;-61
2021/11/19 04:33:46;;;;;;;19.38;15.13;;;;;;;9.18;61.16;102423.59;2073984;28;20648;-61
2021/11/19 04:34:47;;;;;;;19.77;14.70;;;;;;;9.19;61.31;102427.94;2073686;28;20174;-61
2021/11/19 04:35:49;;;;;;;20.13;14.98;;;;;;;9.21;61.30;102433.88;2073930;28;20250;-61
2021/11/19 04:36:49;;;;;;;20.75;14.85;;;;;;;8.92;61.03;102394.06;2073928;28;20243;-61
2021/11/19 04:37:50;;;;;;;19.43;14.63;;;;;;;9.13;61.66;102432.22;2073941;28;20217;-61
2021/11/19 04:38:51;;;;;;;17.03;14.93;;;;;;;9.10;61.56;102432.97;2073819;28;20171;-61
2021/11/19 04:39:52;;;;;;;18.50;15.00;;;;;;;9.02;61.65;102421.03;2073906;28;20158;-61
2021/11/19 04:40:55;;;;;;;20.40;14.93;;;;;;;9.00;61.94;102440.00;2073759;28;20173;-61
2021/11/19 04:41:55;;;;;;;18.40;15.80;;;;;;;9.01;61.47;102436.03;2073830;28;20632;-61
2021/11/19 04:42:56;;;;;;;20.10;16.07;;;;;;;8.98;61.71;102438.78;2073716;28;20603;-62
2021/11/19 04:43:57;;;;;;;19.50;15.70;;;;;;;8.97;61.57;102435.19;2073677;28;20166;-61
2021/11/19 04:44:57;;;;;;;20.95;16.50;;;;;;;8.89;61.65;102424.44;2073749;28;20257;-61
2021/11/19 04:45:59;;;;;;;19.00;15.93;;;;;;;8.39;61.92;102356.72;2073830;28;20625;-61
2021/11/19 04:46:59;;;;;;;18.40;15.13;;;;;;;8.91;61.90;102433.16;2073821;28;20761;-61
2021/11/19 04:48:00;;;;;;;19.40;15.93;;;;;;;8.89;61.67;102425.25;2073809;28;20896;-61
2021/11/19 04:49:00;;;;;;;20.10;15.67;;;;;;;8.72;61.74;102411.22;2073706;28;20208;-61
2021/11/19 04:50:01;;;;;;;19.87;16.10;;;;;;;8.82;61.94;102438.97;2073906;28;20166;-61
2021/11/19 04:51:08;;;;;;;21.30;17.33;;;;;;;8.82;61.65;102440.94;2073576;28;20515;-61
2021/11/19 04:52:11;;;;;;;19.07;16.17;;;;;;;8.81;61.83;102433.84;2081185;28;20178;-62
2021/11/19 04:53:14;;;;;;;20.57;17.50;;;;;;;8.81;61.71;102434.63;2081131;28;20422;-61